| time (UTC) | temp F | wind direction | speed MPH | gust MPH | rain 1hr in | rain 24hr in | rain mn in | humidity % | barometer mb |
| 20260504050311 | 56 | 144 | 1.0 | 2.0 | 0.00 | 0.00 | 0.00 | 66 | 1015.9 |
| 20260504045808 | 56 | 156 | 1.0 | 2.0 | 0.00 | 0.00 | 0.00 | 66 | 1015.9 |
| 20260504045308 | 56 | 132 | 1.0 | 1.0 | 0.00 | 0.00 | 0.00 | 64 | 1016.1 |
| 20260504044806 | 56 | 119 | 1.0 | 2.0 | 0.00 | 0.00 | 0.00 | 64 | 1016.0 |
| 20260504044303 | 56 | 132 | 1.0 | 2.0 | 0.00 | 0.00 | 0.00 | 65 | 1016.3 |
| 20260504043800 | 55 | 142 | 1.0 | 2.0 | 0.00 | 0.00 | 0.00 | 66 | 1016.0 |
| 20260504043257 | 55 | 120 | 1.0 | 2.0 | 0.00 | 0.00 | 0.00 | 67 | 1016.1 |
| 20260504042755 | 55 | 133 | 2.0 | 2.0 | 0.00 | 0.00 | 0.00 | 69 | 1016.2 |
| 20260504042251 | 54 | 135 | 0.0 | 0.0 | 0.00 | 0.00 | 0.00 | 72 | 1016.2 |
| 20260504041747 | 54 | 132 | 0.0 | 0.0 | 0.00 | 0.00 | 0.00 | 72 | 1016.3 |
| 20260504041243 | 53 | 127 | 0.0 | 0.0 | 0.00 | 0.00 | 0.00 | 73 | 1016.3 |
| 20260504040739 | 53 | 115 | 0.0 | 0.0 | 0.00 | 0.00 | 0.00 | 73 | 1016.3 |
| 20260504040237 | 53 | 130 | 0.0 | 0.0 | 0.00 | 0.00 | 0.00 | 74 | 1016.1 |
| 20260504035733 | 51 | 120 | 0.0 | 0.0 | 0.00 | 0.00 | 0.00 | 78 | 1016.4 |
| 20260504035231 | 51 | 119 | 0.0 | 0.0 | 0.00 | 0.00 | 0.00 | 82 | 1016.5 |
| 20260504034728 | 50 | 119 | 0.0 | 0.0 | 0.00 | 0.00 | 0.00 | 84 | 1016.6 |
| 20260504034225 | 50 | 119 | 0.0 | 0.0 | 0.00 | 0.00 | 0.00 | 84 | 1016.6 |
| 20260504033723 | 50 | 119 | 0.0 | 0.0 | 0.00 | 0.00 | 0.00 | 85 | 1016.8 |
| 20260504033220 | 49 | 120 | 0.0 | 0.0 | 0.00 | 0.00 | 0.00 | 86 | 1016.8 |
| 20260504032717 | 50 | 120 | 0.0 | 0.0 | 0.00 | 0.00 | 0.00 | 84 | 1016.8 |
| 20260504032214 | 50 | 120 | 0.0 | 0.0 | 0.00 | 0.00 | 0.00 | 84 | 1016.9 |
| 20260504031710 | 50 | 120 | 0.0 | 0.0 | 0.00 | 0.00 | 0.00 | 84 | 1016.8 |
| 20260504031208 | 50 | 120 | 0.0 | 0.0 | 0.00 | 0.00 | 0.00 | 83 | 1017.1 |
| 20260504030703 | 50 | 120 | 0.0 | 0.0 | 0.00 | 0.00 | 0.00 | 84 | 1017.0 |
| 20260504030201 | 49 | 120 | 0.0 | 0.0 | 0.00 | 0.00 | 0.00 | 82 | 1017.0 |
| 20260504025657 | 50 | 119 | 0.0 | 0.0 | 0.00 | 0.00 | 0.00 | 83 | 1017.3 |
| 20260504025154 | 50 | 119 | 0.0 | 0.0 | 0.00 | 0.00 | 0.00 | 81 | 1017.3 |
| 20260504024651 | 49 | 120 | 0.0 | 0.0 | 0.00 | 0.00 | 0.00 | 82 | 1017.3 |
| 20260504024148 | 49 | 119 | 0.0 | 0.0 | 0.00 | 0.00 | 0.00 | 84 | 1016.9 |
| 20260504023645 | 49 | 119 | 0.0 | 0.0 | 0.00 | 0.00 | 0.00 | 82 | 1017.2 |
| 20260504023141 | 49 | 119 | 0.0 | 0.0 | 0.00 | 0.00 | 0.00 | 80 | 1017.3 |
| 20260504022637 | 50 | 119 | 0.0 | 0.0 | 0.00 | 0.00 | 0.00 | 79 | 1017.2 |
| 20260504022133 | 50 | 119 | 0.0 | 0.0 | 0.00 | 0.00 | 0.00 | 79 | 1017.2 |
| 20260504021631 | 50 | 120 | 0.0 | 0.0 | 0.00 | 0.00 | 0.00 | 78 | 1017.1 |
| 20260504021127 | 50 | 120 | 0.0 | 0.0 | 0.00 | 0.00 | 0.00 | 79 | 1017.2 |
| 20260504020625 | 50 | 119 | 0.0 | 0.0 | 0.00 | 0.00 | 0.00 | 78 | 1017.2 |
| 20260504020120 | 50 | 117 | 0.0 | 0.0 | 0.00 | 0.00 | 0.00 | 77 | 1017.3 |
| 20260504015617 | 51 | 117 | 0.0 | 0.0 | 0.00 | 0.00 | 0.00 | 77 | 1017.2 |
| 20260504015114 | 51 | 116 | 0.0 | 0.0 | 0.00 | 0.00 | 0.00 | 75 | 1017.0 |
| 20260504014609 | 52 | 117 | 0.0 | 0.0 | 0.00 | 0.00 | 0.00 | 75 | 1017.2 |
| 20260504014107 | 52 | 87 | 0.0 | 0.0 | 0.00 | 0.00 | 0.00 | 72 | 1017.0 |
| 20260504013604 | 53 | 84 | 0.0 | 0.0 | 0.00 | 0.00 | 0.00 | 71 | 1017.0 |
| 20260504013101 | 53 | 104 | 0.0 | 0.0 | 0.00 | 0.00 | 0.00 | 68 | 1016.8 |
| 20260504012558 | 54 | 105 | 0.0 | 0.0 | 0.00 | 0.00 | 0.00 | 66 | 1016.7 |
| 20260504012056 | 55 | 105 | 0.0 | 0.0 | 0.00 | 0.00 | 0.00 | 63 | 1016.6 |
| 20260504011553 | 56 | 104 | 0.0 | 0.0 | 0.00 | 0.00 | 0.00 | 61 | 1016.5 |
| 20260504011049 | 57 | 104 | 0.0 | 0.0 | 0.00 | 0.00 | 0.00 | 59 | 1016.2 |
| 20260504010544 | 58 | 104 | 0.0 | 0.0 | 0.00 | 0.00 | 0.00 | 58 | 1016.2 |
| 20260504010041 | 58 | 106 | 0.0 | 0.0 | 0.00 | 0.00 | 0.00 | 56 | 1016.3 |
| 20260504005538 | 58 | 109 | 0.0 | 0.0 | 0.00 | 0.00 | 0.00 | 55 | 1016.5 |
| 20260504005035 | 58 | 114 | 0.0 | 0.0 | 0.00 | 0.00 | 0.00 | 55 | 1016.4 |
| 20260504004533 | 58 | 119 | 0.0 | 0.0 | 0.00 | 0.00 | 0.00 | 54 | 1016.4 |
| 20260504004030 | 59 | 120 | 0.0 | 0.0 | 0.00 | 0.00 | 0.00 | 55 | 1016.2 |
| 20260504003526 | 59 | 118 | 0.0 | 0.0 | 0.00 | 0.00 | 0.00 | 54 | 1016.2 |
| 20260504003023 | 59 | 119 | 0.0 | 0.0 | 0.00 | 0.00 | 0.00 | 53 | 1016.2 |
| 20260504002520 | 60 | 121 | 0.0 | 0.0 | 0.00 | 0.00 | 0.00 | 53 | 1016.1 |
| 20260504002017 | 61 | 126 | 0.0 | 0.0 | 0.00 | 0.00 | 0.00 | 53 | 1016.2 |
| 20260504001515 | 62 | 117 | 0.0 | 1.0 | 0.00 | 0.00 | 0.00 | 51 | 1016.4 |
| 20260504001011 | 62 | 112 | 0.0 | 1.0 | 0.00 | 0.00 | 0.00 | 49 | 1016.4 |
| 20260504000508 | 62 | 252 | 2.0 | 3.0 | 0.00 | 0.00 | 0.00 | 46 | 1016.4 |
| 20260504000005 | 63 | 136 | 2.0 | 2.0 | 0.00 | 0.00 | 0.00 | 48 | 1016.5 |
| 20260503235503 | 63 | 117 | 0.0 | 3.0 | 0.00 | 0.00 | 0.00 | 46 | 1016.4 |
| 20260503235000 | 63 | 110 | 3.0 | 6.0 | 0.00 | 0.00 | 0.00 | 45 | 1016.5 |
| 20260503234458 | 64 | 140 | 0.0 | 2.0 | 0.00 | 0.00 | 0.00 | 49 | 1016.5 |
| 20260503233956 | 64 | 159 | 1.0 | 3.0 | 0.00 | 0.00 | 0.00 | 43 | 1016.6 |
| 20260503233452 | 65 | 225 | 2.0 | 9.0 | 0.00 | 0.00 | 0.00 | 43 | 1016.5 |
| 20260503232948 | 65 | 115 | 1.0 | 8.0 | 0.00 | 0.00 | 0.00 | 44 | 1016.6 |
| 20260503232445 | 65 | 113 | 1.0 | 3.0 | 0.00 | 0.00 | 0.00 | 44 | 1016.6 |
| 20260503231943 | 65 | 150 | 2.0 | 3.0 | 0.00 | 0.00 | 0.00 | 44 | 1016.6 |
| 20260503231440 | 65 | 115 | 2.0 | 3.0 | 0.00 | 0.00 | 0.00 | 42 | 1016.6 |
| 20260503230937 | 66 | 164 | 4.0 | 8.0 | 0.00 | 0.00 | 0.00 | 41 | 1016.7 |
| 20260503230433 | 66 | 243 | 2.0 | 4.0 | 0.00 | 0.00 | 0.00 | 42 | 1016.9 |
| 20260503225931 | 67 | 186 | 2.0 | 3.0 | 0.00 | 0.00 | 0.00 | 44 | 1016.9 |
| 20260503225427 | 67 | 250 | 2.0 | 4.0 | 0.00 | 0.00 | 0.00 | 42 | 1017.0 |
| 20260503224923 | 66 | 210 | 4.0 | 6.0 | 0.00 | 0.00 | 0.00 | 40 | 1017.1 |
| 20260503224420 | 66 | 254 | 4.0 | 11.0 | 0.00 | 0.00 | 0.00 | 39 | 1017.3 |
| 20260503223918 | 66 | 119 | 3.0 | 6.0 | 0.00 | 0.00 | 0.00 | 40 | 1017.1 |
| 20260503223416 | 66 | 247 | 0.0 | 7.0 | 0.00 | 0.00 | 0.00 | 44 | 1017.3 |
| 20260503222916 | 67 | 157 | 5.0 | 8.0 | 0.00 | 0.00 | 0.00 | 39 | 1017.4 |
| 20260503222415 | 66 | 261 | 4.0 | 6.0 | 0.00 | 0.00 | 0.00 | 41 | 1017.4 |
| 20260503221913 | 66 | 255 | 3.0 | 6.0 | 0.00 | 0.00 | 0.00 | 39 | 1017.8 |
| 20260503221411 | 66 | 211 | 3.0 | 13.0 | 0.00 | 0.00 | 0.00 | 40 | 1017.7 |
| 20260503220907 | 66 | 265 | 8.0 | 10.0 | 0.00 | 0.00 | 0.00 | 38 | 1017.7 |
| 20260503220404 | 66 | 209 | 5.0 | 7.0 | 0.00 | 0.00 | 0.00 | 42 | 1017.8 |
| 20260503215901 | 66 | 213 | 5.0 | 9.0 | 0.00 | 0.00 | 0.00 | 40 | 1017.9 |
| 20260503215358 | 66 | 109 | 3.0 | 7.0 | 0.00 | 0.00 | 0.00 | 44 | 1018.2 |
| 20260503214855 | 66 | 213 | 4.0 | 13.0 | 0.00 | 0.00 | 0.00 | 41 | 1018.3 |
| 20260503214352 | 66 | 168 | 5.0 | 8.0 | 0.00 | 0.00 | 0.00 | 40 | 1018.3 |
| 20260503213850 | 67 | 271 | 6.0 | 10.0 | 0.00 | 0.00 | 0.00 | 41 | 1018.4 |
| 20260503213348 | 67 | 222 | 4.0 | 7.0 | 0.00 | 0.00 | 0.00 | 44 | 1018.4 |
| 20260503212844 | 67 | 202 | 2.0 | 7.0 | 0.00 | 0.00 | 0.00 | 46 | 1018.3 |
| 20260503212342 | 67 | 217 | 4.0 | 4.0 | 0.00 | 0.00 | 0.00 | 39 | 1018.5 |
| 20260503211839 | 67 | 172 | 4.0 | 8.0 | 0.00 | 0.00 | 0.00 | 42 | 1018.6 |
| 20260503211336 | 66 | 214 | 2.0 | 8.0 | 0.00 | 0.00 | 0.00 | 39 | 1018.6 |
| 20260503210831 | 66 | 213 | 1.0 | 4.0 | 0.00 | 0.00 | 0.00 | 42 | 1018.7 |
| 20260503210328 | 66 | 165 | 3.0 | 9.0 | 0.00 | 0.00 | 0.00 | 40 | 1018.8 |
| 20260503205823 | 65 | 279 | 4.0 | 8.0 | 0.00 | 0.00 | 0.00 | 40 | 1019.2 |
| 20260503205320 | 66 | 325 | 7.0 | 10.0 | 0.00 | 0.00 | 0.00 | 39 | 1019.3 |
| 20260503204817 | 66 | 262 | 6.0 | 7.0 | 0.00 | 0.00 | 0.00 | 38 | 1019.3 |
| 20260503204314 | 67 | 173 | 4.0 | 7.0 | 0.00 | 0.00 | 0.00 | 40 | 1019.5 |
| 20260503203811 | 65 | 133 | 2.0 | 7.0 | 0.00 | 0.00 | 0.00 | 40 | 1019.3 |
| 20260503203309 | 66 | 242 | 3.0 | 9.0 | 0.00 | 0.00 | 0.00 | 42 | 1019.5 |
| 20260503202806 | 66 | 133 | 4.0 | 8.0 | 0.00 | 0.00 | 0.00 | 43 | 1019.5 |
| 20260503202304 | 65 | 300 | 5.0 | 9.0 | 0.00 | 0.00 | 0.00 | 39 | 1019.4 |
| 20260503201801 | 65 | 277 | 8.0 | 13.0 | 0.00 | 0.00 | 0.00 | 39 | 1019.6 |
| 20260503201258 | 66 | 152 | 5.0 | 10.0 | 0.00 | 0.00 | 0.00 | 39 | 1019.9 |
| 20260503200755 | 65 | 146 | 3.0 | 4.0 | 0.00 | 0.00 | 0.00 | 42 | 1020.3 |
| 20260503200251 | 65 | 208 | 4.0 | 7.0 | 0.00 | 0.00 | 0.00 | 40 | 1020.2 |
| 20260503195749 | 66 | 171 | 1.0 | 7.0 | 0.00 | 0.00 | 0.00 | 40 | 1020.0 |
| 20260503195245 | 66 | 137 | 3.0 | 8.0 | 0.00 | 0.00 | 0.00 | 49 | 1020.2 |
| 20260503194743 | 66 | 153 | 4.0 | 6.0 | 0.00 | 0.00 | 0.00 | 44 | 1020.5 |
| 20260503194238 | 64 | 278 | 2.0 | 4.0 | 0.00 | 0.00 | 0.00 | 43 | 1020.5 |
| 20260503193735 | 65 | 189 | 3.0 | 8.0 | 0.00 | 0.00 | 0.00 | 42 | 1020.7 |
| 20260503193231 | 65 | 157 | 3.0 | 6.0 | 0.00 | 0.00 | 0.00 | 46 | 1020.8 |
| 20260503192727 | 66 | 214 | 6.0 | 8.0 | 0.00 | 0.00 | 0.00 | 42 | 1021.1 |
| 20260503192222 | 64 | 214 | 6.0 | 9.0 | 0.00 | 0.00 | 0.00 | 40 | 1021.1 |
| 20260503191719 | 65 | 213 | 3.0 | 10.0 | 0.00 | 0.00 | 0.00 | 44 | 1021.2 |
| 20260503191216 | 65 | 330 | 2.0 | 6.0 | 0.00 | 0.00 | 0.00 | 42 | 1021.2 |
| 20260503190713 | 66 | 134 | 6.0 | 7.0 | 0.00 | 0.00 | 0.00 | 43 | 1021.2 |
| 20260503190209 | 65 | 217 | 2.0 | 3.0 | 0.00 | 0.00 | 0.00 | 44 | 1021.1 |
| 20260503185707 | 64 | 262 | 5.0 | 9.0 | 0.00 | 0.00 | 0.00 | 43 | 1021.3 |
| 20260503185202 | 64 | 247 | 6.0 | 10.0 | 0.00 | 0.00 | 0.00 | 40 | 1021.6 |
| 20260503184657 | 63 | 274 | 2.0 | 7.0 | 0.00 | 0.00 | 0.00 | 42 | 1021.7 |
| 20260503184154 | 63 | 289 | 6.0 | 9.0 | 0.00 | 0.00 | 0.00 | 42 | 1021.8 |
| 20260503183650 | 63 | 256 | 5.0 | 6.0 | 0.00 | 0.00 | 0.00 | 45 | 1021.9 |
| 20260503183147 | 64 | 285 | 2.0 | 4.0 | 0.00 | 0.00 | 0.00 | 40 | 1022.1 |
| 20260503182645 | 63 | 209 | 2.0 | 4.0 | 0.00 | 0.00 | 0.00 | 44 | 1022.0 |
| 20260503182144 | 63 | 213 | 3.0 | 8.0 | 0.00 | 0.00 | 0.00 | 41 | 1022.3 |
| 20260503181640 | 62 | 206 | 2.0 | 6.0 | 0.00 | 0.00 | 0.00 | 43 | 1022.0 |
| 20260503181137 | 62 | 266 | 5.0 | 9.0 | 0.00 | 0.00 | 0.00 | 41 | 1022.1 |
| 20260503180634 | 63 | 269 | 4.0 | 4.0 | 0.00 | 0.00 | 0.00 | 41 | 1022.1 |
| 20260503180132 | 62 | 188 | 3.0 | 6.0 | 0.00 | 0.00 | 0.00 | 38 | 1022.3 |
| 20260503175629 | 62 | 98 | 4.0 | 6.0 | 0.00 | 0.00 | 0.00 | 36 | 1022.4 |
| 20260503175126 | 61 | 291 | 5.0 | 9.0 | 0.00 | 0.00 | 0.00 | 40 | 1022.5 |
| 20260503174622 | 62 | 242 | 2.0 | 4.0 | 0.00 | 0.00 | 0.00 | 40 | 1022.6 |
| 20260503174120 | 62 | 296 | 2.0 | 3.0 | 0.00 | 0.00 | 0.00 | 39 | 1022.6 |
| 20260503173614 | 61 | 242 | 4.0 | 8.0 | 0.00 | 0.00 | 0.00 | 38 | 1022.7 |
| 20260503173111 | 62 | 254 | 7.0 | 9.0 | 0.00 | 0.00 | 0.00 | 43 | 1022.7 |
| 20260503172608 | 61 | 191 | 1.0 | 2.0 | 0.00 | 0.00 | 0.00 | 46 | 1022.6 |
| 20260503172105 | 60 | 285 | 6.0 | 9.0 | 0.00 | 0.00 | 0.00 | 42 | 1022.8 |
| 20260503171601 | 61 | 349 | 3.0 | 8.0 | 0.00 | 0.00 | 0.00 | 39 | 1023.0 |
| 20260503171059 | 61 | 242 | 8.0 | 9.0 | 0.00 | 0.00 | 0.00 | 42 | 1023.2 |
| 20260503170555 | 62 | 263 | 6.0 | 10.0 | 0.00 | 0.00 | 0.00 | 38 | 1023.1 |
| 20260503150948 | 60 | 199 | 1.0 | 1.0 | 0.00 | 0.00 | 0.00 | 46 | 1023.9 |
| 20260503150444 | 58 | 111 | 1.0 | 3.0 | 0.00 | 0.00 | 0.00 | 45 | 1024.1 |
| 20260503131337 | 44 | 101 | 0.0 | 0.0 | 0.00 | 0.00 | 0.00 | 99 | 1024.1 |
| 20260503130835 | 43 | 104 | 0.0 | 0.0 | 0.00 | 0.00 | 0.00 | 99 | 1024.1 |
| 20260503130332 | 42 | 102 | 0.0 | 1.0 | 0.00 | 0.00 | 0.00 | 99 | 1023.8 |
| 20260503110726 | 31 | 86 | 0.0 | 0.0 | 0.00 | 0.00 | 0.00 | 99 | 1023.6 |
| 20260503110223 | 31 | 86 | 0.0 | 0.0 | 0.00 | 0.00 | 0.00 | 99 | 1023.4 |
| 20260503100149 | 31 | 86 | 0.0 | 0.0 | 0.00 | 0.00 | 0.00 | 99 | 1023.1 |
| 20260503090109 | 31 | 86 | 0.0 | 0.0 | 0.00 | 0.00 | 0.00 | 99 | 1023.0 |
| 20260503081544 | 31 | 86 | 0.0 | 0.0 | 0.00 | 0.00 | 0.00 | 99 | 1023.1 |
| 20260503081042 | 31 | 86 | 0.0 | 0.0 | 0.00 | 0.00 | 0.00 | 99 | 1023.1 |
| 20260503080537 | 31 | 86 | 0.0 | 0.0 | 0.00 | 0.00 | 0.00 | 99 | 1022.9 |
| 20260503072512 | 33 | 86 | 0.0 | 0.0 | 0.00 | 0.00 | 0.00 | 99 | 1022.8 |
| 20260503072008 | 33 | 86 | 0.0 | 0.0 | 0.00 | 0.00 | 0.00 | 99 | 1022.7 |
| 20260503071505 | 33 | 86 | 0.0 | 0.0 | 0.00 | 0.00 | 0.00 | 99 | 1023.0 |
| 20260503071001 | 33 | 86 | 0.0 | 0.0 | 0.00 | 0.00 | 0.00 | 99 | 1022.6 |
| 20260503070458 | 33 | 86 | 0.0 | 0.0 | 0.00 | 0.00 | 0.00 | 99 | 1022.8 |